sensor_id;sensor_type;location;lat;lon;timestamp;temperature;humidity
17687;DHT22;8962;52.538;13.266;2023-03-29T00:00:13;3.30;99.90
17687;DHT22;8962;52.538;13.266;2023-03-29T00:02:44;3.40;99.90
17687;DHT22;8962;52.538;13.266;2023-03-29T00:05:13;3.40;99.90
17687;DHT22;8962;52.538;13.266;2023-03-29T00:07:41;3.40;99.90
17687;DHT22;8962;52.538;13.266;2023-03-29T00:10:10;3.50;99.90
17687;DHT22;8962;52.538;13.266;2023-03-29T00:12:39;3.50;99.90
17687;DHT22;8962;52.538;13.266;2023-03-29T00:15:08;3.50;99.90
17687;DHT22;8962;52.538;13.266;2023-03-29T00:17:36;3.50;99.90
17687;DHT22;8962;52.538;13.266;2023-03-29T00:20:06;3.50;99.90
17687;DHT22;8962;52.538;13.266;2023-03-29T00:22:36;3.60;99.90
17687;DHT22;8962;52.538;13.266;2023-03-29T00:25:05;3.60;99.90
17687;DHT22;8962;52.538;13.266;2023-03-29T00:27:33;3.60;99.90
17687;DHT22;8962;52.538;13.266;2023-03-29T00:30:00;3.60;99.90
17687;DHT22;8962;52.538;13.266;2023-03-29T00:32:29;3.60;99.90
17687;DHT22;8962;52.538;13.266;2023-03-29T00:34:56;3.60;99.90
17687;DHT22;8962;52.538;13.266;2023-03-29T00:37:27;3.60;99.90
17687;DHT22;8962;52.538;13.266;2023-03-29T00:39:55;3.60;99.90
17687;DHT22;8962;52.538;13.266;2023-03-29T00:42:23;3.60;99.90
17687;DHT22;8962;52.538;13.266;2023-03-29T00:45:01;3.60;99.90
17687;DHT22;8962;52.538;13.266;2023-03-29T00:47:33;3.60;99.90
17687;DHT22;8962;52.538;13.266;2023-03-29T00:50:03;3.70;99.90
17687;DHT22;8962;52.538;13.266;2023-03-29T00:52:35;3.70;99.90
17687;DHT22;8962;52.538;13.266;2023-03-29T00:55:09;3.70;99.90
17687;DHT22;8962;52.538;13.266;2023-03-29T00:57:38;3.70;99.90
17687;DHT22;8962;52.538;13.266;2023-03-29T01:00:07;3.70;99.90
17687;DHT22;8962;52.538;13.266;2023-03-29T01:02:37;3.70;99.90
17687;DHT22;8962;52.538;13.266;2023-03-29T01:05:10;3.70;99.90
17687;DHT22;8962;52.538;13.266;2023-03-29T01:07:45;3.70;99.90
17687;DHT22;8962;52.538;13.266;2023-03-29T01:10:20;3.70;99.90
17687;DHT22;8962;52.538;13.266;2023-03-29T01:12:55;3.70;99.90
17687;DHT22;8962;52.538;13.266;2023-03-29T01:15:25;3.80;99.90
17687;DHT22;8962;52.538;13.266;2023-03-29T01:17:55;3.70;99.90
17687;DHT22;8962;52.538;13.266;2023-03-29T01:20:29;3.70;99.90
17687;DHT22;8962;52.538;13.266;2023-03-29T01:23:16;3.70;99.90
17687;DHT22;8962;52.538;13.266;2023-03-29T01:25:56;3.70;99.90
17687;DHT22;8962;52.538;13.266;2023-03-29T01:28:30;3.70;99.90
17687;DHT22;8962;52.538;13.266;2023-03-29T01:31:02;3.70;99.90
17687;DHT22;8962;52.538;13.266;2023-03-29T01:33:36;3.60;99.90
17687;DHT22;8962;52.538;13.266;2023-03-29T01:36:10;3.60;99.90
17687;DHT22;8962;52.538;13.266;2023-03-29T01:38:42;3.60;99.90
17687;DHT22;8962;52.538;13.266;2023-03-29T01:41:14;3.60;99.90
17687;DHT22;8962;52.538;13.266;2023-03-29T01:43:47;3.60;99.90
17687;DHT22;8962;52.538;13.266;2023-03-29T01:46:20;3.60;99.90
17687;DHT22;8962;52.538;13.266;2023-03-29T01:48:55;3.60;99.90
17687;DHT22;8962;52.538;13.266;2023-03-29T01:51:29;3.60;99.90
17687;DHT22;8962;52.538;13.266;2023-03-29T01:54:00;3.60;99.90
17687;DHT22;8962;52.538;13.266;2023-03-29T01:56:33;3.60;99.90
17687;DHT22;8962;52.538;13.266;2023-03-29T01:59:06;3.60;99.90
17687;DHT22;8962;52.538;13.266;2023-03-29T02:01:38;3.70;99.90
17687;DHT22;8962;52.538;13.266;2023-03-29T02:04:12;3.70;99.90
17687;DHT22;8962;52.538;13.266;2023-03-29T02:06:41;3.70;99.90
17687;DHT22;8962;52.538;13.266;2023-03-29T02:09:09;3.70;99.90
17687;DHT22;8962;52.538;13.266;2023-03-29T02:11:41;3.70;99.90
17687;DHT22;8962;52.538;13.266;2023-03-29T02:14:11;3.70;99.90
17687;DHT22;8962;52.538;13.266;2023-03-29T02:16:40;3.70;99.90
17687;DHT22;8962;52.538;13.266;2023-03-29T02:19:08;3.70;99.90
17687;DHT22;8962;52.538;13.266;2023-03-29T02:21:39;3.70;99.90
17687;DHT22;8962;52.538;13.266;2023-03-29T02:24:10;3.70;99.90
17687;DHT22;8962;52.538;13.266;2023-03-29T02:26:40;3.70;99.90
17687;DHT22;8962;52.538;13.266;2023-03-29T02:29:07;3.70;99.90
17687;DHT22;8962;52.538;13.266;2023-03-29T02:31:39;3.60;99.90
17687;DHT22;8962;52.538;13.266;2023-03-29T02:34:14;3.60;99.90
17687;DHT22;8962;52.538;13.266;2023-03-29T02:36:47;3.60;99.90
17687;DHT22;8962;52.538;13.266;2023-03-29T02:39:17;3.60;99.90
17687;DHT22;8962;52.538;13.266;2023-03-29T02:41:47;3.50;99.90
17687;DHT22;8962;52.538;13.266;2023-03-29T02:44:19;3.50;99.90
17687;DHT22;8962;52.538;13.266;2023-03-29T02:46:52;3.50;99.90
17687;DHT22;8962;52.538;13.266;2023-03-29T02:49:21;3.50;99.90
17687;DHT22;8962;52.538;13.266;2023-03-29T02:51:50;3.40;99.90
17687;DHT22;8962;52.538;13.266;2023-03-29T02:54:21;3.40;99.90
17687;DHT22;8962;52.538;13.266;2023-03-29T02:56:55;3.40;99.90
17687;DHT22;8962;52.538;13.266;2023-03-29T02:59:23;3.40;99.90
17687;DHT22;8962;52.538;13.266;2023-03-29T03:01:52;3.30;99.90
17687;DHT22;8962;52.538;13.266;2023-03-29T03:04:21;3.30;99.90
17687;DHT22;8962;52.538;13.266;2023-03-29T03:06:48;3.30;99.90
17687;DHT22;8962;52.538;13.266;2023-03-29T03:09:16;3.20;99.90
17687;DHT22;8962;52.538;13.266;2023-03-29T03:11:47;3.20;99.90
17687;DHT22;8962;52.538;13.266;2023-03-29T03:14:15;3.20;99.90
17687;DHT22;8962;52.538;13.266;2023-03-29T03:16:43;3.20;99.90
17687;DHT22;8962;52.538;13.266;2023-03-29T03:19:14;3.10;99.90
17687;DHT22;8962;52.538;13.266;2023-03-29T03:21:42;3.10;99.90
17687;DHT22;8962;52.538;13.266;2023-03-29T03:24:11;3.10;99.90
17687;DHT22;8962;52.538;13.266;2023-03-29T03:26:38;3.10;99.90
17687;DHT22;8962;52.538;13.266;2023-03-29T03:29:07;3.10;99.90
17687;DHT22;8962;52.538;13.266;2023-03-29T03:31:59;3.10;99.90
17687;DHT22;8962;52.538;13.266;2023-03-29T03:34:55;3.10;99.90
17687;DHT22;8962;52.538;13.266;2023-03-29T03:37:25;3.10;99.90
17687;DHT22;8962;52.538;13.266;2023-03-29T03:39:59;3.00;99.90
17687;DHT22;8962;52.538;13.266;2023-03-29T03:42:30;3.00;99.90
17687;DHT22;8962;52.538;13.266;2023-03-29T03:44:58;3.00;99.90
17687;DHT22;8962;52.538;13.266;2023-03-29T03:47:35;3.00;99.90
17687;DHT22;8962;52.538;13.266;2023-03-29T03:50:19;3.00;99.90
17687;DHT22;8962;52.538;13.266;2023-03-29T03:52:46;3.10;99.90
17687;DHT22;8962;52.538;13.266;2023-03-29T03:55:14;3.10;99.90
17687;DHT22;8962;52.538;13.266;2023-03-29T03:58:00;3.00;99.90
17687;DHT22;8962;52.538;13.266;2023-03-29T04:00:28;3.00;99.90
17687;DHT22;8962;52.538;13.266;2023-03-29T04:03:14;3.00;99.90
17687;DHT22;8962;52.538;13.266;2023-03-29T04:05:45;3.00;99.90
17687;DHT22;8962;52.538;13.266;2023-03-29T04:08:14;3.00;99.90
17687;DHT22;8962;52.538;13.266;2023-03-29T04:11:07;3.00;99.90
17687;DHT22;8962;52.538;13.266;2023-03-29T04:13:37;3.00;99.90
17687;DHT22;8962;52.538;13.266;2023-03-29T04:16:36;2.90;99.90
17687;DHT22;8962;52.538;13.266;2023-03-29T04:19:29;3.00;99.90
17687;DHT22;8962;52.538;13.266;2023-03-29T04:21:58;3.00;99.90
17687;DHT22;8962;52.538;13.266;2023-03-29T04:24:25;2.90;99.90
17687;DHT22;8962;52.538;13.266;2023-03-29T04:27:26;2.90;99.90
17687;DHT22;8962;52.538;13.266;2023-03-29T04:29:54;2.90;99.90
17687;DHT22;8962;52.538;13.266;2023-03-29T04:32:47;2.90;99.90
17687;DHT22;8962;52.538;13.266;2023-03-29T04:35:15;2.90;99.90
17687;DHT22;8962;52.538;13.266;2023-03-29T04:37:45;2.90;99.90
17687;DHT22;8962;52.538;13.266;2023-03-29T04:40:17;2.80;99.90
17687;DHT22;8962;52.538;13.266;2023-03-29T04:43:17;2.90;99.90
17687;DHT22;8962;52.538;13.266;2023-03-29T04:45:55;2.90;99.90
17687;DHT22;8962;52.538;13.266;2023-03-29T04:48:41;2.90;99.90
17687;DHT22;8962;52.538;13.266;2023-03-29T04:51:14;2.90;99.90
17687;DHT22;8962;52.538;13.266;2023-03-29T04:53:44;2.90;99.90
17687;DHT22;8962;52.538;13.266;2023-03-29T04:56:14;2.90;99.90
17687;DHT22;8962;52.538;13.266;2023-03-29T04:59:02;2.90;99.90
17687;DHT22;8962;52.538;13.266;2023-03-29T05:01:31;3.00;99.90
17687;DHT22;8962;52.538;13.266;2023-03-29T05:03:58;3.00;99.90
17687;DHT22;8962;52.538;13.266;2023-03-29T05:06:34;3.00;99.90
17687;DHT22;8962;52.538;13.266;2023-03-29T05:09:04;3.00;99.90
17687;DHT22;8962;52.538;13.266;2023-03-29T05:11:59;3.00;99.90
17687;DHT22;8962;52.538;13.266;2023-03-29T05:14:30;3.00;99.90
17687;DHT22;8962;52.538;13.266;2023-03-29T05:16:58;3.10;99.90
17687;DHT22;8962;52.538;13.266;2023-03-29T05:19:26;3.10;99.90
17687;DHT22;8962;52.538;13.266;2023-03-29T05:21:54;3.10;99.90
17687;DHT22;8962;52.538;13.266;2023-03-29T05:24:24;3.20;99.90
17687;DHT22;8962;52.538;13.266;2023-03-29T05:26:57;3.20;99.90
17687;DHT22;8962;52.538;13.266;2023-03-29T05:29:27;3.30;99.90
17687;DHT22;8962;52.538;13.266;2023-03-29T05:32:20;3.30;99.90
17687;DHT22;8962;52.538;13.266;2023-03-29T05:34:50;3.30;99.90
17687;DHT22;8962;52.538;13.266;2023-03-29T05:37:18;3.40;99.90
17687;DHT22;8962;52.538;13.266;2023-03-29T05:39:55;3.40;99.90
17687;DHT22;8962;52.538;13.266;2023-03-29T05:42:30;3.40;99.90
17687;DHT22;8962;52.538;13.266;2023-03-29T05:45:02;3.40;99.90
17687;DHT22;8962;52.538;13.266;2023-03-29T05:47:30;3.50;99.90
17687;DHT22;8962;52.538;13.266;2023-03-29T05:50:03;3.50;99.90
17687;DHT22;8962;52.538;13.266;2023-03-29T05:52:33;3.60;99.90
17687;DHT22;8962;52.538;13.266;2023-03-29T05:55:03;3.70;99.90
17687;DHT22;8962;52.538;13.266;2023-03-29T05:57:34;3.70;99.90
17687;DHT22;8962;52.538;13.266;2023-03-29T06:00:03;3.80;99.90
17687;DHT22;8962;52.538;13.266;2023-03-29T06:02:44;3.80;99.90
17687;DHT22;8962;52.538;13.266;2023-03-29T06:05:13;3.90;99.90
17687;DHT22;8962;52.538;13.266;2023-03-29T06:07:55;4.00;99.90
17687;DHT22;8962;52.538;13.266;2023-03-29T06:10:44;4.20;99.90
17687;DHT22;8962;52.538;13.266;2023-03-29T06:13:32;4.20;99.90
17687;DHT22;8962;52.538;13.266;2023-03-29T06:16:08;4.30;99.90
17687;DHT22;8962;52.538;13.266;2023-03-29T06:18:36;4.30;99.90
17687;DHT22;8962;52.538;13.266;2023-03-29T06:21:07;4.40;99.90
17687;DHT22;8962;52.538;13.266;2023-03-29T06:23:38;4.50;99.90
17687;DHT22;8962;52.538;13.266;2023-03-29T06:26:08;4.60;99.90
17687;DHT22;8962;52.538;13.266;2023-03-29T06:28:39;4.60;99.90
17687;DHT22;8962;52.538;13.266;2023-03-29T06:31:06;4.60;99.90
17687;DHT22;8962;52.538;13.266;2023-03-29T06:33:37;4.70;99.90
17687;DHT22;8962;52.538;13.266;2023-03-29T06:36:14;4.70;99.90
17687;DHT22;8962;52.538;13.266;2023-03-29T06:38:42;4.80;99.90
17687;DHT22;8962;52.538;13.266;2023-03-29T06:41:23;4.90;99.90
17687;DHT22;8962;52.538;13.266;2023-03-29T06:44:21;5.00;99.90
17687;DHT22;8962;52.538;13.266;2023-03-29T06:46:57;5.00;99.90
17687;DHT22;8962;52.538;13.266;2023-03-29T06:49:26;5.00;99.90
17687;DHT22;8962;52.538;13.266;2023-03-29T06:52:20;5.10;99.90
17687;DHT22;8962;52.538;13.266;2023-03-29T06:54:48;5.20;99.90
17687;DHT22;8962;52.538;13.266;2023-03-29T06:57:17;5.20;99.90
17687;DHT22;8962;52.538;13.266;2023-03-29T06:59:44;5.30;99.90
17687;DHT22;8962;52.538;13.266;2023-03-29T07:02:35;5.30;99.90
17687;DHT22;8962;52.538;13.266;2023-03-29T07:05:09;5.40;99.90
17687;DHT22;8962;52.538;13.266;2023-03-29T07:07:45;5.50;99.90
17687;DHT22;8962;52.538;13.266;2023-03-29T07:10:43;5.60;99.90
17687;DHT22;8962;52.538;13.266;2023-03-29T07:13:13;5.70;99.90
17687;DHT22;8962;52.538;13.266;2023-03-29T07:15:43;5.70;99.90
17687;DHT22;8962;52.538;13.266;2023-03-29T07:18:33;5.80;99.90
17687;DHT22;8962;52.538;13.266;2023-03-29T07:21:04;6.00;99.90
17687;DHT22;8962;52.538;13.266;2023-03-29T07:23:31;6.10;99.90
17687;DHT22;8962;52.538;13.266;2023-03-29T07:25:59;6.30;99.90
17687;DHT22;8962;52.538;13.266;2023-03-29T07:28:31;6.40;99.90
17687;DHT22;8962;52.538;13.266;2023-03-29T07:31:02;6.40;99.90
17687;DHT22;8962;52.538;13.266;2023-03-29T07:33:33;6.70;99.90
17687;DHT22;8962;52.538;13.266;2023-03-29T07:36:05;6.80;99.90
17687;DHT22;8962;52.538;13.266;2023-03-29T07:38:35;6.90;99.90
17687;DHT22;8962;52.538;13.266;2023-03-29T07:41:11;7.00;99.90
17687;DHT22;8962;52.538;13.266;2023-03-29T07:44:09;7.10;99.90
17687;DHT22;8962;52.538;13.266;2023-03-29T07:46:38;7.10;99.90
17687;DHT22;8962;52.538;13.266;2023-03-29T07:49:10;7.20;99.90
17687;DHT22;8962;52.538;13.266;2023-03-29T07:51:40;7.20;99.90
17687;DHT22;8962;52.538;13.266;2023-03-29T07:54:11;7.10;99.90
17687;DHT22;8962;52.538;13.266;2023-03-29T07:56:47;7.30;99.90
17687;DHT22;8962;52.538;13.266;2023-03-29T07:59:24;7.30;99.90
17687;DHT22;8962;52.538;13.266;2023-03-29T08:02:10;7.50;99.90
17687;DHT22;8962;52.538;13.266;2023-03-29T08:04:40;7.60;99.90
17687;DHT22;8962;52.538;13.266;2023-03-29T08:07:17;7.60;99.90
17687;DHT22;8962;52.538;13.266;2023-03-29T08:10:06;7.70;99.90
17687;DHT22;8962;52.538;13.266;2023-03-29T08:12:56;7.70;99.90
17687;DHT22;8962;52.538;13.266;2023-03-29T08:15:36;7.60;99.90
17687;DHT22;8962;52.538;13.266;2023-03-29T08:18:06;7.60;99.90
17687;DHT22;8962;52.538;13.266;2023-03-29T08:20:36;7.70;99.90
17687;DHT22;8962;52.538;13.266;2023-03-29T08:23:03;7.70;99.90
17687;DHT22;8962;52.538;13.266;2023-03-29T08:25:57;7.50;99.90
17687;DHT22;8962;52.538;13.266;2023-03-29T08:28:25;7.70;99.90
17687;DHT22;8962;52.538;13.266;2023-03-29T08:30:54;7.60;99.90
17687;DHT22;8962;52.538;13.266;2023-03-29T08:33:23;7.40;99.90
17687;DHT22;8962;52.538;13.266;2023-03-29T08:36:00;7.50;99.90
17687;DHT22;8962;52.538;13.266;2023-03-29T08:38:31;7.50;99.90
17687;DHT22;8962;52.538;13.266;2023-03-29T08:40:58;7.80;99.90
17687;DHT22;8962;52.538;13.266;2023-03-29T08:43:49;8.00;99.90
17687;DHT22;8962;52.538;13.266;2023-03-29T08:46:48;8.30;99.90
17687;DHT22;8962;52.538;13.266;2023-03-29T08:49:27;8.70;99.90
17687;DHT22;8962;52.538;13.266;2023-03-29T08:51:58;9.10;99.90
17687;DHT22;8962;52.538;13.266;2023-03-29T08:54:31;9.20;99.90
17687;DHT22;8962;52.538;13.266;2023-03-29T08:57:16;9.30;99.90
17687;DHT22;8962;52.538;13.266;2023-03-29T08:59:52;9.40;99.90
17687;DHT22;8962;52.538;13.266;2023-03-29T09:02:25;9.40;99.90
17687;DHT22;8962;52.538;13.266;2023-03-29T09:05:04;9.70;99.90
17687;DHT22;8962;52.538;13.266;2023-03-29T09:07:40;10.10;99.90
17687;DHT22;8962;52.538;13.266;2023-03-29T09:10:12;10.40;99.90
17687;DHT22;8962;52.538;13.266;2023-03-29T09:12:50;10.60;99.90
17687;DHT22;8962;52.538;13.266;2023-03-29T09:15:23;10.50;99.90
17687;DHT22;8962;52.538;13.266;2023-03-29T09:18:06;10.60;99.90
17687;DHT22;8962;52.538;13.266;2023-03-29T09:20:44;10.50;99.90
17687;DHT22;8962;52.538;13.266;2023-03-29T09:23:27;10.30;99.90
17687;DHT22;8962;52.538;13.266;2023-03-29T09:26:25;10.50;99.90
17687;DHT22;8962;52.538;13.266;2023-03-29T09:29:31;10.50;99.90
17687;DHT22;8962;52.538;13.266;2023-03-29T09:32:13;10.20;99.90
17687;DHT22;8962;52.538;13.266;2023-03-29T09:34:52;10.00;99.90
17687;DHT22;8962;52.538;13.266;2023-03-29T09:37:23;9.90;99.90
17687;DHT22;8962;52.538;13.266;2023-03-29T09:39:52;9.90;99.90
17687;DHT22;8962;52.538;13.266;2023-03-29T09:42:26;10.10;99.90
17687;DHT22;8962;52.538;13.266;2023-03-29T09:44:59;10.20;99.90
17687;DHT22;8962;52.538;13.266;2023-03-29T09:47:38;10.40;99.90
17687;DHT22;8962;52.538;13.266;2023-03-29T09:50:14;10.70;99.90
17687;DHT22;8962;52.538;13.266;2023-03-29T09:52:42;10.80;99.90
17687;DHT22;8962;52.538;13.266;2023-03-29T09:55:24;10.90;99.90
17687;DHT22;8962;52.538;13.266;2023-03-29T09:58:00;10.90;99.90
17687;DHT22;8962;52.538;13.266;2023-03-29T10:00:32;10.80;99.90
17687;DHT22;8962;52.538;13.266;2023-03-29T10:03:01;10.60;99.90
17687;DHT22;8962;52.538;13.266;2023-03-29T10:05:45;10.40;99.90
17687;DHT22;8962;52.538;13.266;2023-03-29T10:08:18;10.50;99.90
17687;DHT22;8962;52.538;13.266;2023-03-29T10:10:47;10.40;99.90
17687;DHT22;8962;52.538;13.266;2023-03-29T10:13:19;10.40;99.90
17687;DHT22;8962;52.538;13.266;2023-03-29T10:16:00;10.60;99.90
17687;DHT22;8962;52.538;13.266;2023-03-29T10:18:29;10.40;99.90
17687;DHT22;8962;52.538;13.266;2023-03-29T10:21:00;10.40;99.90
17687;DHT22;8962;52.538;13.266;2023-03-29T10:23:37;10.40;99.90
17687;DHT22;8962;52.538;13.266;2023-03-29T10:26:07;10.80;99.90
17687;DHT22;8962;52.538;13.266;2023-03-29T10:28:36;11.00;99.90
17687;DHT22;8962;52.538;13.266;2023-03-29T10:31:06;11.10;99.90
17687;DHT22;8962;52.538;13.266;2023-03-29T10:33:34;11.10;99.90
17687;DHT22;8962;52.538;13.266;2023-03-29T10:36:06;11.20;99.90
17687;DHT22;8962;52.538;13.266;2023-03-29T10:38:35;11.30;99.90
17687;DHT22;8962;52.538;13.266;2023-03-29T10:41:05;11.60;99.90
17687;DHT22;8962;52.538;13.266;2023-03-29T10:43:36;11.90;99.90
17687;DHT22;8962;52.538;13.266;2023-03-29T10:46:09;12.10;99.90
17687;DHT22;8962;52.538;13.266;2023-03-29T10:48:38;11.80;99.90
17687;DHT22;8962;52.538;13.266;2023-03-29T10:51:07;11.90;99.90
17687;DHT22;8962;52.538;13.266;2023-03-29T10:53:36;11.80;99.90
17687;DHT22;8962;52.538;13.266;2023-03-29T10:56:22;12.10;99.90
17687;DHT22;8962;52.538;13.266;2023-03-29T10:59:11;12.20;99.90
17687;DHT22;8962;52.538;13.266;2023-03-29T11:01:52;12.00;99.90
17687;DHT22;8962;52.538;13.266;2023-03-29T11:04:29;11.90;99.90
17687;DHT22;8962;52.538;13.266;2023-03-29T11:07:17;12.00;99.90
17687;DHT22;8962;52.538;13.266;2023-03-29T11:09:51;12.30;99.90
17687;DHT22;8962;52.538;13.266;2023-03-29T11:12:25;12.60;99.90
17687;DHT22;8962;52.538;13.266;2023-03-29T11:15:02;12.90;99.90
17687;DHT22;8962;52.538;13.266;2023-03-29T11:17:45;13.10;99.90
17687;DHT22;8962;52.538;13.266;2023-03-29T11:20:21;12.90;99.90
17687;DHT22;8962;52.538;13.266;2023-03-29T11:22:59;13.10;99.90
17687;DHT22;8962;52.538;13.266;2023-03-29T11:25:37;13.00;99.90
17687;DHT22;8962;52.538;13.266;2023-03-29T11:28:09;12.90;99.90
17687;DHT22;8962;52.538;13.266;2023-03-29T11:30:45;12.90;99.90
17687;DHT22;8962;52.538;13.266;2023-03-29T11:33:33;12.90;99.90
17687;DHT22;8962;52.538;13.266;2023-03-29T11:36:10;13.40;99.90
17687;DHT22;8962;52.538;13.266;2023-03-29T11:38:46;14.90;99.90
17687;DHT22;8962;52.538;13.266;2023-03-29T11:41:17;15.70;99.90
17687;DHT22;8962;52.538;13.266;2023-03-29T11:43:47;15.30;99.90
17687;DHT22;8962;52.538;13.266;2023-03-29T11:46:17;14.80;99.90
17687;DHT22;8962;52.538;13.266;2023-03-29T11:48:49;14.40;99.90
17687;DHT22;8962;52.538;13.266;2023-03-29T11:51:22;14.10;99.90
17687;DHT22;8962;52.538;13.266;2023-03-29T11:53:59;14.00;99.90
17687;DHT22;8962;52.538;13.266;2023-03-29T11:56:33;14.10;99.90
17687;DHT22;8962;52.538;13.266;2023-03-29T11:59:07;13.90;99.90
17687;DHT22;8962;52.538;13.266;2023-03-29T12:01:40;14.00;99.90
17687;DHT22;8962;52.538;13.266;2023-03-29T12:04:12;14.90;99.90
17687;DHT22;8962;52.538;13.266;2023-03-29T12:06:45;15.20;99.90
17687;DHT22;8962;52.538;13.266;2023-03-29T12:09:23;15.80;99.90
17687;DHT22;8962;52.538;13.266;2023-03-29T12:11:57;15.50;99.90
17687;DHT22;8962;52.538;13.266;2023-03-29T12:14:31;15.20;99.90
17687;DHT22;8962;52.538;13.266;2023-03-29T12:17:04;14.70;99.90
17687;DHT22;8962;52.538;13.266;2023-03-29T12:19:37;14.30;99.90
17687;DHT22;8962;52.538;13.266;2023-03-29T12:22:09;14.40;99.90
17687;DHT22;8962;52.538;13.266;2023-03-29T12:24:45;13.80;99.90
17687;DHT22;8962;52.538;13.266;2023-03-29T12:27:21;13.30;99.90
17687;DHT22;8962;52.538;13.266;2023-03-29T12:33:21;12.80;99.90
17687;DHT22;8962;52.538;13.266;2023-03-29T12:36:29;12.70;99.90
17687;DHT22;8962;52.538;13.266;2023-03-29T12:39:28;12.60;99.90
17687;DHT22;8962;52.538;13.266;2023-03-29T12:42:25;12.70;99.90
17687;DHT22;8962;52.538;13.266;2023-03-29T12:45:18;12.70;99.90
17687;DHT22;8962;52.538;13.266;2023-03-29T12:47:47;12.60;99.90
17687;DHT22;8962;52.538;13.266;2023-03-29T12:50:24;12.40;99.90
17687;DHT22;8962;52.538;13.266;2023-03-29T12:53:04;12.40;99.90
17687;DHT22;8962;52.538;13.266;2023-03-29T12:55:47;12.40;99.90
17687;DHT22;8962;52.538;13.266;2023-03-29T12:58:31;12.70;99.90
17687;DHT22;8962;52.538;13.266;2023-03-29T13:01:05;12.90;99.90
17687;DHT22;8962;52.538;13.266;2023-03-29T13:03:45;12.70;99.90
17687;DHT22;8962;52.538;13.266;2023-03-29T13:06:26;12.80;99.90
17687;DHT22;8962;52.538;13.266;2023-03-29T13:08:59;12.80;99.90
17687;DHT22;8962;52.538;13.266;2023-03-29T13:11:32;13.00;99.90
17687;DHT22;8962;52.538;13.266;2023-03-29T13:14:11;13.10;99.90
17687;DHT22;8962;52.538;13.266;2023-03-29T13:16:39;12.80;99.90
17687;DHT22;8962;52.538;13.266;2023-03-29T13:19:26;13.00;99.90
17687;DHT22;8962;52.538;13.266;2023-03-29T13:22:13;13.10;99.90
17687;DHT22;8962;52.538;13.266;2023-03-29T13:24:56;13.00;99.90
17687;DHT22;8962;52.538;13.266;2023-03-29T13:27:40;13.00;99.90
17687;DHT22;8962;52.538;13.266;2023-03-29T13:30:22;13.00;99.90
17687;DHT22;8962;52.538;13.266;2023-03-29T13:33:01;12.60;99.90
17687;DHT22;8962;52.538;13.266;2023-03-29T13:35:39;12.50;99.90
17687;DHT22;8962;52.538;13.266;2023-03-29T13:38:16;12.20;99.90
17687;DHT22;8962;52.538;13.266;2023-03-29T13:43:31;12.20;99.90
17687;DHT22;8962;52.538;13.266;2023-03-29T13:46:18;12.20;99.90
17687;DHT22;8962;52.538;13.266;2023-03-29T13:49:04;12.50;99.90
17687;DHT22;8962;52.538;13.266;2023-03-29T13:51:47;12.70;99.90
17687;DHT22;8962;52.538;13.266;2023-03-29T13:54:23;12.90;99.90
17687;DHT22;8962;52.538;13.266;2023-03-29T13:56:58;13.00;99.90
17687;DHT22;8962;52.538;13.266;2023-03-29T13:59:34;12.90;99.90
17687;DHT22;8962;52.538;13.266;2023-03-29T14:02:08;12.90;99.90
17687;DHT22;8962;52.538;13.266;2023-03-29T14:04:42;12.90;99.90
17687;DHT22;8962;52.538;13.266;2023-03-29T14:07:13;12.70;99.90
17687;DHT22;8962;52.538;13.266;2023-03-29T14:09:42;12.40;99.90
17687;DHT22;8962;52.538;13.266;2023-03-29T14:12:13;12.40;99.90
17687;DHT22;8962;52.538;13.266;2023-03-29T14:14:43;12.30;99.90
17687;DHT22;8962;52.538;13.266;2023-03-29T14:17:18;12.20;99.90
17687;DHT22;8962;52.538;13.266;2023-03-29T14:19:47;12.00;99.90
17687;DHT22;8962;52.538;13.266;2023-03-29T14:22:18;11.90;99.90
17687;DHT22;8962;52.538;13.266;2023-03-29T14:24:52;11.90;99.90
17687;DHT22;8962;52.538;13.266;2023-03-29T14:27:21;11.80;99.90
17687;DHT22;8962;52.538;13.266;2023-03-29T14:29:50;11.70;99.90
17687;DHT22;8962;52.538;13.266;2023-03-29T14:32:27;11.60;99.90
17687;DHT22;8962;52.538;13.266;2023-03-29T14:34:55;11.70;99.90
17687;DHT22;8962;52.538;13.266;2023-03-29T14:37:24;11.70;99.90
17687;DHT22;8962;52.538;13.266;2023-03-29T14:39:53;11.80;99.90
17687;DHT22;8962;52.538;13.266;2023-03-29T14:42:24;11.80;99.90
17687;DHT22;8962;52.538;13.266;2023-03-29T14:44:57;11.90;99.90
17687;DHT22;8962;52.538;13.266;2023-03-29T14:47:31;11.90;99.90
17687;DHT22;8962;52.538;13.266;2023-03-29T14:50:00;11.90;99.90
17687;DHT22;8962;52.538;13.266;2023-03-29T14:52:29;12.00;99.90
17687;DHT22;8962;52.538;13.266;2023-03-29T14:54:59;12.00;99.90
17687;DHT22;8962;52.538;13.266;2023-03-29T14:57:31;11.90;99.90
17687;DHT22;8962;52.538;13.266;2023-03-29T14:59:59;11.70;99.90
17687;DHT22;8962;52.538;13.266;2023-03-29T15:02:32;11.70;99.90
17687;DHT22;8962;52.538;13.266;2023-03-29T15:05:00;11.60;99.90
17687;DHT22;8962;52.538;13.266;2023-03-29T15:07:30;11.50;99.90
17687;DHT22;8962;52.538;13.266;2023-03-29T15:09:58;11.40;99.90
17687;DHT22;8962;52.538;13.266;2023-03-29T15:12:28;11.40;99.90
17687;DHT22;8962;52.538;13.266;2023-03-29T15:14:55;11.50;99.90
17687;DHT22;8962;52.538;13.266;2023-03-29T15:17:30;11.50;99.90
17687;DHT22;8962;52.538;13.266;2023-03-29T15:20:03;11.50;99.90
17687;DHT22;8962;52.538;13.266;2023-03-29T15:22:37;11.50;99.90
17687;DHT22;8962;52.538;13.266;2023-03-29T15:25:14;11.60;99.90
17687;DHT22;8962;52.538;13.266;2023-03-29T15:27:42;11.70;99.90
17687;DHT22;8962;52.538;13.266;2023-03-29T15:30:14;11.80;99.90
17687;DHT22;8962;52.538;13.266;2023-03-29T15:32:43;11.90;99.90
17687;DHT22;8962;52.538;13.266;2023-03-29T15:35:21;12.00;99.90
17687;DHT22;8962;52.538;13.266;2023-03-29T15:37:49;12.10;99.90
17687;DHT22;8962;52.538;13.266;2023-03-29T15:40:18;12.10;99.90
17687;DHT22;8962;52.538;13.266;2023-03-29T15:42:46;12.20;99.90
17687;DHT22;8962;52.538;13.266;2023-03-29T15:45:14;12.10;99.90
17687;DHT22;8962;52.538;13.266;2023-03-29T15:47:44;12.20;99.90
17687;DHT22;8962;52.538;13.266;2023-03-29T15:50:12;12.10;99.90
17687;DHT22;8962;52.538;13.266;2023-03-29T15:52:40;12.10;99.90
17687;DHT22;8962;52.538;13.266;2023-03-29T15:55:08;12.00;99.90
17687;DHT22;8962;52.538;13.266;2023-03-29T15:57:36;12.10;99.90
17687;DHT22;8962;52.538;13.266;2023-03-29T16:00:09;12.00;99.90
17687;DHT22;8962;52.538;13.266;2023-03-29T16:02:42;12.00;99.90
17687;DHT22;8962;52.538;13.266;2023-03-29T16:05:12;12.00;99.90
17687;DHT22;8962;52.538;13.266;2023-03-29T16:07:40;11.90;99.90
17687;DHT22;8962;52.538;13.266;2023-03-29T16:10:08;11.80;99.90
17687;DHT22;8962;52.538;13.266;2023-03-29T16:12:36;11.70;99.90
17687;DHT22;8962;52.538;13.266;2023-03-29T16:15:22;11.80;99.90
17687;DHT22;8962;52.538;13.266;2023-03-29T16:17:51;11.70;99.90
17687;DHT22;8962;52.538;13.266;2023-03-29T16:20:19;11.70;99.90
17687;DHT22;8962;52.538;13.266;2023-03-29T16:22:46;11.60;99.90
17687;DHT22;8962;52.538;13.266;2023-03-29T16:25:15;11.60;99.90
17687;DHT22;8962;52.538;13.266;2023-03-29T16:27:43;11.60;99.90
17687;DHT22;8962;52.538;13.266;2023-03-29T16:30:12;11.60;99.90